Hethersett, United Kingdom
Current Conditions -  °F | °C
As of 1:50 PM on Saturday 22 Nov 2014 (Local Time) from EGSH Reporting Station
Light Rain Light Rain  
Wind Chill: 55°   Ceiling: Unl
Heat Index: 55°   Visibility: 1.8mi
Dew Point: 55°   Wind: 3mph
Humidity: 100%   Direction: NA
Pressure: 29.91"   Gusts: NA
Location:  52.6°N, 1.17°E
Report Text: EGSH 221350Z VRB03KT 3000 -RA BR SCT015 13/13 Q1013 BECMG 6000 NSW
Loading
Personal Weather Stations






























Interactive Weather Map New forecast layout! Learn more

10-Day Weather Forecast

Advertisements
Track Severe Weather on mobile